This is the latest recevied weather packets stored in our database for station/object KG4GJX. If no packets are shown the sender has not sent any weather packets the latest 10 day(s).
| Time | Temp. | Humidity | Pressure | Rain* | Wind** | Luminosity | Snow |
|---|---|---|---|---|---|---|---|
| 1777236950 | 26.11° C | 53% | 1012.5 hPa | 0 mm | - | - | - |
| 1777236288 | 26.67° C | 48% | 1012.5 hPa | 0 mm | - | - | - |
| 1777235626 | 26.67° C | 50% | 1012.5 hPa | 0 mm | - | - | - |
| 1777234963 | 26.11° C | 53% | 1012.5 hPa | 0 mm | - | - | - |
| 1777234301 | 26.11° C | 51% | 1012.8 hPa | 0 mm | - | - | - |
| 1777233639 | 26.11° C | 54% | 1012.8 hPa | 0 mm | - | - | - |
| 1777232976 | 26.11° C | 57% | 1012.8 hPa | 0 mm | - | - | - |
| 1777232314 | 26.11° C | 56% | 1013.2 hPa | 0 mm | - | - | - |
| 1777231651 | 25.56° C | 57% | 1013.2 hPa | 0 mm | - | - | - |
| 1777230989 | 25° C | 60% | 1013.5 hPa | 0 mm | - | - | - |
| 1777230326 | 25° C | 60% | 1013.5 hPa | 0 mm | - | - | - |
| 1777229664 | 24.44° C | 63% | 1013.5 hPa | 0 mm | - | - | - |
| 1777229002 | 24.44° C | 61% | 1013.5 hPa | 0 mm | - | - | - |
| 1777228340 | 24.44° C | 67% | 1013.5 hPa | 0 mm | - | - | - |
| 1777227677 | 24.44° C | 65% | 1013.8 hPa | 0 mm | - | - | - |
| 1777227015 | 23.89° C | 69% | 1013.8 hPa | 0 mm | - | - | - |
| 1777226352 | 23.33° C | 67% | 1013.8 hPa | 0 mm | - | - | - |
| 1777225690 | 23.33° C | 66% | 1013.8 hPa | 0 mm | - | - | - |
| 1777225027 | 23.33° C | 72% | 1014.2 hPa | 0 mm | - | - | - |
| 1777224365 | 23.33° C | 73% | 1014.2 hPa | 0 mm | - | - | - |
| 1777223703 | 22.78° C | 74% | 1014.2 hPa | 0 mm | - | - | - |
| 1777223040 | 23.33° C | 67% | 1014.2 hPa | 0 mm | - | - | - |
| 1777222378 | 22.78° C | 70% | 1014.2 hPa | 0 mm | - | - | - |
| 1777221716 | 23.33° C | 70% | 1014.5 hPa | 0 mm | - | - | - |
| 1777221053 | 22.78° C | 74% | 1014.5 hPa | 0 mm | - | - | - |
* Rain latest hour (hover to see other rain measurements)
** Current wind speed in m/s (hover to see current wind gust speed)